Time;durP1;ratioP1;P1;durP2;ratioP2;P2;SDS_P1;SDS_P2;PMS_P1;PMS_P2;Temp;Humidity;BMP_temperature;BMP_pressure;BME280_temperature;BME280_humidity;BME280_pressure;Samples;Min_cycle;Max_cycle;Signal;HPM_P1;HPM_P2
2022/04/03 00:02:26;;;;;;;3.83;3.13;;;;;;;9.44;79.55;95995.75;6270899;22;20170;-86
2022/04/03 00:04:54;;;;;;;3.73;2.97;;;;;;;9.54;80.60;96040.00;6245534;22;20184;-87
2022/04/03 00:07:23;;;;;;;4.57;3.03;;;;;;;9.41;80.74;96023.53;6273098;22;20161;-86
2022/04/03 00:09:51;;;;;;;4.23;3.10;;;;;;;9.53;79.85;96044.31;6271829;22;20184;-85
2022/04/03 00:12:18;;;;;;;4.70;3.30;;;;;;;9.38;79.48;96029.69;6269467;22;20248;-87
2022/04/03 00:14:48;;;;;;;4.43;3.00;;;;;;;9.38;79.67;96040.03;6268428;22;20211;-92
2022/04/03 00:17:16;;;;;;;3.80;3.20;;;;;;;8.99;79.90;96017.28;6271378;22;20192;-87
2022/04/03 00:19:45;;;;;;;2.80;2.50;;;;;;;8.78;80.45;96033.94;6272126;22;20169;-92
2022/04/03 00:22:16;;;;;;;3.73;2.77;;;;;;;8.31;80.46;96006.47;6270907;22;20169;-91
2022/04/03 00:24:45;;;;;;;4.30;2.70;;;;;;;8.32;82.39;96023.63;6245375;22;20169;-89
2022/04/03 00:27:13;;;;;;;3.37;2.70;;;;;;;7.99;82.61;95990.94;6272987;22;20176;-91
2022/04/03 00:29:41;;;;;;;4.03;3.03;;;;;;;7.99;82.85;95969.47;6271358;22;20169;-93
2022/04/03 00:32:10;;;;;;;3.87;2.57;;;;;;;8.47;82.48;96035.72;6224658;22;20251;-92
2022/04/03 00:34:39;;;;;;;3.10;2.70;;;;;;;8.60;83.59;96034.13;6281236;22;20169;-94
2022/04/03 00:37:08;;;;;;;3.43;3.10;;;;;;;8.63;83.68;96033.97;6251827;22;20196;-86
2022/04/03 00:39:36;;;;;;;4.10;3.37;;;;;;;8.70;82.70;96040.44;6280218;22;20167;-87
2022/04/03 00:42:06;;;;;;;5.17;3.70;;;;;;;8.74;82.80;96035.03;6274994;22;20171;-90
2022/04/03 00:44:38;;;;;;;3.03;2.70;;;;;;;8.53;82.05;96033.59;6270607;22;20165;-91
2022/04/03 00:47:05;;;;;;;3.53;2.77;;;;;;;8.57;82.56;96036.88;6271489;22;20165;-87
2022/04/03 00:49:34;;;;;;;3.33;2.73;;;;;;;8.49;83.23;96020.97;6270567;22;20197;-89
2022/04/03 00:52:02;;;;;;;3.70;3.00;;;;;;;8.60;82.64;96023.78;6271694;22;20165;-92
2022/04/03 00:54:32;;;;;;;5.70;2.93;;;;;;;8.43;82.40;95980.03;6244616;22;20222;-91
2022/04/03 00:57:05;;;;;;;6.70;2.83;;;;;;;8.50;82.70;95982.19;6278718;22;20199;-86
2022/04/03 00:59:34;;;;;;;4.23;2.83;;;;;;;8.86;82.05;96000.00;6276909;22;20171;-90
2022/04/03 01:02:02;;;;;;;4.47;2.73;;;;;;;9.13;81.09;96003.56;6270521;22;20180;-92
2022/04/03 01:04:31;;;;;;;3.60;2.87;;;;;;;8.98;80.18;95963.16;6269293;22;20620;-88
2022/04/03 01:06:59;;;;;;;5.37;3.10;;;;;;;9.16;79.54;95972.44;6270764;22;20176;-91
2022/04/03 01:09:28;;;;;;;2.63;2.43;;;;;;;9.57;78.74;95999.28;6269543;22;20184;-89
2022/04/03 01:11:56;;;;;;;3.13;2.33;;;;;;;9.93;78.12;96005.78;6243065;22;20174;-89
2022/04/03 01:14:35;;;;;;;4.60;2.70;;;;;;;10.10;77.50;96019.41;6243058;22;20624;-91
2022/04/03 01:17:03;;;;;;;3.07;2.77;;;;;;;10.16;76.66;96002.69;6270903;22;20220;-92
2022/04/03 01:19:31;;;;;;;6.40;4.47;;;;;;;10.26;75.53;95981.31;6270593;22;20165;-88
2022/04/03 01:21:58;;;;;;;3.47;2.90;;;;;;;10.36;76.04;96004.91;6271057;22;20220;-93
2022/04/03 01:24:26;;;;;;;4.37;2.63;;;;;;;9.97;76.31;95955.56;6270004;22;20165;-89
2022/04/03 01:26:54;;;;;;;3.50;2.80;;;;;;;10.16;75.55;95979.41;6270118;22;20166;-90
2022/04/03 01:29:21;;;;;;;3.73;3.30;;;;;;;9.96;75.82;96003.84;6245114;22;20655;-91
2022/04/03 01:31:48;;;;;;;3.33;3.00;;;;;;;9.36;78.21;95959.19;6270394;22;20176;-92
2022/04/03 01:34:17;;;;;;;3.33;2.67;;;;;;;9.37;78.00;95985.84;6271756;22;20192;-88
2022/04/03 01:36:45;;;;;;;3.93;3.07;;;;;;;9.17;77.49;95968.91;6272771;22;20200;-89
2022/04/03 01:39:14;;;;;;;5.17;2.47;;;;;;;8.97;78.05;95951.16;6276179;22;20247;-93
2022/04/03 01:41:43;;;;;;;3.67;2.87;;;;;;;9.03;77.89;95961.13;6273629;22;20162;-89
2022/04/03 01:44:12;;;;;;;4.27;2.60;;;;;;;8.78;78.27;95943.59;6278825;22;20188;-88
2022/04/03 01:46:40;;;;;;;3.03;2.60;;;;;;;8.99;77.84;95962.22;6256323;22;20168;-88
2022/04/03 01:49:09;;;;;;;2.30;2.10;;;;;;;8.72;77.81;95937.94;6272232;22;20199;-87
2022/04/03 01:51:37;;;;;;;3.60;2.50;;;;;;;8.67;77.53;95937.38;6276306;22;20171;-87
2022/04/03 01:54:05;;;;;;;5.50;2.43;;;;;;;8.90;74.76;95960.97;6277754;22;20188;-86
2022/04/03 01:56:34;;;;;;;3.43;2.20;;;;;;;8.38;73.40;95915.78;6285212;22;20541;-87
2022/04/03 01:59:06;;;;;;;2.23;1.93;;;;;;;8.11;75.73;95912.09;6273048;22;20198;-87
2022/04/03 02:01:37;;;;;;;2.20;1.80;;;;;;;8.23;75.23;95894.22;6277658;22;20171;-91
2022/04/03 02:04:04;;;;;;;3.20;1.70;;;;;;;8.38;73.35;95930.44;6275266;22;20181;-90
2022/04/03 02:06:31;;;;;;;2.03;1.83;;;;;;;8.64;74.30;95914.31;6281485;22;20164;-89
2022/04/03 02:09:01;;;;;;;2.10;1.90;;;;;;;8.75;73.79;95893.91;6252830;22;20165;-90
2022/04/03 02:11:29;;;;;;;2.83;1.70;;;;;;;9.03;73.90;95920.66;6272663;22;20819;-91
2022/04/03 02:13:56;;;;;;;3.00;2.10;;;;;;;9.05;73.13;95912.81;6271418;22;20184;-86
2022/04/03 02:16:24;;;;;;;2.57;2.03;;;;;;;9.26;72.74;95914.16;6244205;22;20193;-91
2022/04/03 02:18:51;;;;;;;3.33;2.63;;;;;;;9.40;72.96;95945.16;6270203;22;20200;-88
2022/04/03 02:21:21;;;;;;;4.80;2.70;;;;;;;9.31;73.14;95937.97;6270257;22;20175;-91
2022/04/03 02:23:49;;;;;;;3.47;2.20;;;;;;;9.44;72.90;95953.56;6273241;22;20156;-93
2022/04/03 02:26:19;;;;;;;3.23;2.00;;;;;;;9.63;72.47;95960.16;6245487;22;20192;-90
2022/04/03 02:28:48;;;;;;;3.10;2.23;;;;;;;9.49;72.82;95949.81;6270727;22;20247;-87
2022/04/03 02:31:17;;;;;;;3.67;2.07;;;;;;;9.33;72.84;95974.88;6271171;22;20165;-88
2022/04/03 02:33:47;;;;;;;4.00;2.13;;;;;;;8.84;73.93;95957.94;6268811;22;20573;-87
2022/04/03 02:36:14;;;;;;;2.80;2.27;;;;;;;8.79;73.67;95959.94;6271286;22;20161;-86
2022/04/03 02:38:41;;;;;;;2.00;1.70;;;;;;;8.79;73.35;95975.41;6268032;22;20236;-90
2022/04/03 02:41:16;;;;;;;2.20;2.00;;;;;;;8.83;73.15;95970.00;6269054;22;20176;-87
2022/04/03 02:43:46;;;;;;;3.13;2.00;;;;;;;8.52;74.40;95940.81;6271372;22;20230;-89
2022/04/03 02:46:14;;;;;;;3.13;2.03;;;;;;;8.50;74.11;95940.06;6271239;22;20230;-86
2022/04/03 02:48:42;;;;;;;3.00;1.90;;;;;;;8.61;74.05;95981.59;6269514;22;20595;-86
2022/04/03 02:51:10;;;;;;;2.23;1.80;;;;;;;8.60;73.51;95980.75;6270169;22;20203;-86
2022/04/03 02:53:39;;;;;;;2.73;1.93;;;;;;;8.59;73.08;95960.22;6278575;22;20242;-86
2022/04/03 02:56:06;;;;;;;3.13;2.63;;;;;;;8.86;73.38;95984.50;6248407;22;20161;-87
2022/04/03 02:58:33;;;;;;;2.27;2.00;;;;;;;8.68;73.45;95952.78;6284607;22;20226;-87
2022/04/03 03:01:02;;;;;;;3.23;2.10;;;;;;;8.83;72.73;95984.66;6299739;22;20163;-89
2022/04/03 03:03:29;;;;;;;2.67;2.10;;;;;;;8.70;72.34;95948.38;6293341;22;20227;-86
2022/04/03 03:05:57;;;;;;;2.83;1.90;;;;;;;8.61;73.59;95968.69;6291266;22;20168;-87
2022/04/03 03:08:24;;;;;;;3.93;2.30;;;;;;;8.91;73.12;95992.81;6285939;22;20160;-86
2022/04/03 03:10:52;;;;;;;3.43;2.60;;;;;;;8.85;73.20;95969.91;6280679;22;20160;-86
2022/04/03 03:13:19;;;;;;;4.43;2.67;;;;;;;8.82;73.08;95973.50;6270815;22;20168;-87
2022/04/03 03:15:46;;;;;;;4.67;2.47;;;;;;;8.42;72.98;95952.56;6270498;22;20177;-90
2022/04/03 03:18:16;;;;;;;2.43;2.10;;;;;;;8.12;75.28;95978.19;6268893;22;20206;-87
2022/04/03 03:20:46;;;;;;;3.57;2.40;;;;;;;8.12;75.50;95953.25;6243319;22;20263;-89
2022/04/03 03:23:13;;;;;;;4.43;2.80;;;;;;;8.27;74.93;95945.66;6269088;22;20177;-87
2022/04/03 03:25:41;;;;;;;3.60;2.20;;;;;;;8.05;74.60;95946.78;6272028;22;20164;-89
2022/04/03 03:28:09;;;;;;;6.43;2.43;;;;;;;7.75;75.48;95956.09;6270414;22;20157;-88
2022/04/03 03:30:37;;;;;;;4.23;2.90;;;;;;;7.65;76.83;95993.56;6244019;22;20175;-87
2022/04/03 03:33:06;;;;;;;3.40;2.90;;;;;;;7.47;77.42;95988.53;6244152;22;20617;-90
2022/04/03 03:35:35;;;;;;;10.60;6.27;;;;;;;6.89;78.80;95939.94;6270023;22;20628;-89
2022/04/03 03:38:02;;;;;;;7.40;4.80;;;;;;;6.54;79.05;95946.78;6271198;22;20672;-87
2022/04/03 03:40:30;;;;;;;6.23;4.10;;;;;;;6.19;80.60;95959.59;6243908;22;20609;-88
2022/04/03 03:43:01;;;;;;;5.57;3.83;;;;;;;6.33;81.24;95964.94;6270945;22;20194;-89
2022/04/03 03:45:28;;;;;;;5.53;4.27;;;;;;;6.41;81.28;95937.13;6269041;22;20168;-87
2022/04/03 03:47:59;;;;;;;7.73;4.27;;;;;;;6.78;81.40;95985.91;6270517;22;20640;-87
2022/04/03 03:50:29;;;;;;;5.87;4.13;;;;;;;6.94;82.44;95986.03;6270249;22;20158;-86
2022/04/03 03:52:57;;;;;;;6.13;4.17;;;;;;;6.72;81.20;95954.53;6286921;22;20196;-86
2022/04/03 03:55:25;;;;;;;8.20;4.17;;;;;;;6.88;80.68;95965.75;6261956;22;20191;-86
2022/04/03 03:57:52;;;;;;;5.63;3.60;;;;;;;7.00;81.05;95990.88;6281200;22;20203;-90
2022/04/03 04:00:19;;;;;;;6.60;4.10;;;;;;;6.88;80.83;95986.31;6280602;22;20164;-87
2022/04/03 04:02:48;;;;;;;4.43;3.53;;;;;;;6.74;80.54;95968.16;6251467;22;20667;-88
2022/04/03 04:05:21;;;;;;;6.17;3.00;;;;;;;6.77;80.88;95975.69;6271374;22;20166;-92
2022/04/03 04:07:50;;;;;;;3.73;3.03;;;;;;;7.16;80.72;96013.22;6244070;22;20210;-91
2022/04/03 04:10:18;;;;;;;3.40;2.90;;;;;;;7.39;80.54;96004.38;6270630;22;20674;-86
2022/04/03 04:12:48;;;;;;;5.87;3.07;;;;;;;7.67;78.34;96020.09;6243610;22;20176;-90
2022/04/03 04:15:16;;;;;;;2.70;2.40;;;;;;;7.77;78.02;96016.13;6271418;22;20230;-87
2022/04/03 04:17:48;;;;;;;4.57;3.10;;;;;;;7.38;78.28;95971.78;6269433;22;20204;-88
2022/04/03 04:20:17;;;;;;;4.00;3.27;;;;;;;7.65;78.32;96001.31;6271478;22;20161;-86
2022/04/03 04:22:48;;;;;;;4.20;2.80;;;;;;;8.03;78.50;96028.53;6269868;22;20580;-92
2022/04/03 04:25:17;;;;;;;4.17;3.40;;;;;;;7.96;76.45;95985.94;6271870;22;20176;-91
2022/04/03 04:27:45;;;;;;;5.77;3.80;;;;;;;8.06;76.46;96006.91;6274020;22;20168;-88
2022/04/03 04:30:14;;;;;;;4.87;3.23;;;;;;;7.95;77.38;96029.84;6271198;22;20168;-86
2022/04/03 04:32:41;;;;;;;5.67;4.00;;;;;;;7.32;78.96;95992.69;6271101;22;20165;-86
2022/04/03 04:35:09;;;;;;;6.23;4.20;;;;;;;7.30;79.48;96028.81;6269829;22;20160;-85
2022/04/03 04:37:36;;;;;;;5.40;3.87;;;;;;;6.86;80.51;95999.25;6272693;22;20204;-90
2022/04/03 04:40:05;;;;;;;6.23;4.07;;;;;;;6.92;81.70;95985.28;6272178;22;20195;-86
2022/04/03 04:42:33;;;;;;;7.07;4.03;;;;;;;6.87;81.69;95979.50;6273138;22;20617;-85
2022/04/03 04:45:01;;;;;;;4.60;3.80;;;;;;;6.94;80.82;96016.91;6271950;22;20527;-86
2022/04/03 04:47:33;;;;;;;6.17;4.70;;;;;;;6.65;82.56;95984.84;6268731;22;20195;-87
2022/04/03 04:50:01;;;;;;;5.00;4.17;;;;;;;6.87;82.69;96025.81;6279856;22;20159;-83
2022/04/03 04:52:29;;;;;;;5.33;3.73;;;;;;;6.69;82.72;96004.38;6274914;22;20168;-93
2022/04/03 04:55:05;;;;;;;4.23;3.53;;;;;;;6.67;82.84;95995.91;6272086;22;20164;-86
2022/04/03 04:57:34;;;;;;;4.87;4.10;;;;;;;6.77;82.84;96004.00;6275352;22;20265;-89
2022/04/03 05:00:09;;;;;;;9.17;6.00;;;;;;;7.38;81.45;96034.44;6278729;22;20191;-87
2022/04/03 05:02:36;;;;;;;9.23;5.67;;;;;;;7.46;79.52;95997.97;6276144;22;20184;-85
2022/04/03 05:05:05;;;;;;;7.57;4.80;;;;;;;7.75;78.86;96015.38;6275799;22;20169;-84
2022/04/03 05:07:35;;;;;;;6.03;4.13;;;;;;;7.76;80.34;96035.09;6273434;22;20211;-83
2022/04/03 05:10:10;;;;;;;8.27;4.03;;;;;;;7.64;79.22;96035.72;6272578;22;20582;-86
2022/04/03 05:12:45;;;;;;;6.00;4.20;;;;;;;7.36;80.13;96030.25;6244794;22;20572;-85
2022/04/03 05:15:17;;;;;;;8.83;5.80;;;;;;;7.14;80.62;96014.19;6270605;22;20667;-84
2022/04/03 05:17:47;;;;;;;6.70;4.80;;;;;;;7.60;80.38;96034.22;6273055;22;20879;-90
2022/04/03 05:20:15;;;;;;;4.63;3.90;;;;;;;7.65;79.68;96039.09;6275365;22;20164;-90
2022/04/03 05:22:43;;;;;;;5.63;3.70;;;;;;;7.66;79.75;96038.22;6276329;22;20164;-89
2022/04/03 05:25:11;;;;;;;7.00;3.67;;;;;;;7.80;79.02;96049.50;6272892;22;20492;-85
2022/04/03 05:27:42;;;;;;;7.53;3.63;;;;;;;7.96;78.55;96052.94;6276343;22;20164;-85
2022/04/03 05:30:13;;;;;;;30.53;21.23;;;;;;;7.79;77.00;96041.84;6271163;22;20173;-87
2022/04/03 05:32:43;;;;;;;7.10;4.97;;;;;;;7.95;77.78;96053.03;6275070;22;20165;-85
2022/04/03 05:35:13;;;;;;;17.63;12.40;;;;;;;7.91;77.52;96028.34;6273235;22;20271;-86
2022/04/03 05:37:44;;;;;;;8.27;6.73;;;;;;;8.13;76.83;96047.75;6274543;22;20200;-87
2022/04/03 05:40:16;;;;;;;43.17;18.53;;;;;;;8.40;76.22;96052.41;6276518;22;20190;-86
2022/04/03 05:42:44;;;;;;;10.53;6.20;;;;;;;8.33;76.58;96031.25;6243655;22;20173;-85
2022/04/03 05:45:13;;;;;;;9.07;4.17;;;;;;;8.50;75.63;96058.75;6270001;22;20167;-86
2022/04/03 05:47:41;;;;;;;10.20;5.43;;;;;;;8.58;75.44;96044.53;6283402;22;20260;-92
2022/04/03 05:50:14;;;;;;;8.07;4.77;;;;;;;8.47;75.64;95997.00;6248276;22;20250;-86
2022/04/03 05:52:49;;;;;;;6.90;4.10;;;;;;;9.03;73.70;96070.41;6222581;22;20617;-89
2022/04/03 05:55:19;;;;;;;6.53;4.00;;;;;;;9.21;74.35;96085.81;6272564;22;20164;-88
2022/04/03 05:57:48;;;;;;;5.20;4.10;;;;;;;9.13;73.30;96067.34;6272629;22;20199;-94
2022/04/03 06:00:18;;;;;;;30.90;10.47;;;;;;;9.27;73.46;96077.72;6273466;22;20501;-94
2022/04/03 06:02:46;;;;;;;9.23;4.30;;;;;;;9.11;72.86;96044.16;6272929;22;20210;-94
2022/04/03 06:05:16;;;;;;;8.63;4.20;;;;;;;9.33;73.45;96051.53;6272491;22;20161;-95
2022/04/03 06:07:44;;;;;;;6.40;3.20;;;;;;;9.72;72.37;96095.78;6273972;22;20165;-92
2022/04/03 06:10:11;;;;;;;5.07;3.50;;;;;;;9.50;71.87;96054.00;6282065;22;20168;-87
2022/04/03 06:13:03;;;;;;;8.40;5.37;;;;;;;9.81;71.74;96097.84;6284109;22;20161;-86
2022/04/03 06:15:33;;;;;;;5.73;4.03;;;;;;;9.76;71.09;96116.22;6271387;22;20219;-93
2022/04/03 06:18:11;;;;;;;13.87;7.43;;;;;;;9.09;73.19;96078.75;6271811;22;20199;-88
2022/04/03 06:20:39;;;;;;;8.30;4.97;;;;;;;9.15;74.19;96093.91;6273365;22;20164;-94
2022/04/03 06:23:15;;;;;;;5.83;3.97;;;;;;;9.27;73.77;96125.06;6221523;22;20260;-90
2022/04/03 06:25:46;;;;;;;30.03;15.27;;;;;;;9.32;73.78;96127.38;6249681;22;20263;-89
2022/04/03 06:28:14;;;;;;;5.63;4.20;;;;;;;8.65;73.93;96047.63;6253530;22;20179;-88
2022/04/03 06:30:44;;;;;;;3.97;3.60;;;;;;;9.04;74.72;96128.06;6247510;22;20203;-94
2022/04/03 06:33:11;;;;;;;6.60;3.67;;;;;;;8.64;75.44;96118.19;6275698;22;20161;-91
2022/04/03 06:35:39;;;;;;;9.27;6.07;;;;;;;8.72;76.63;96141.84;6246995;22;20271;-94
2022/04/03 06:38:11;;;;;;;23.87;13.70;;;;;;;8.81;75.66;96147.38;6275812;22;20233;-94
2022/04/03 06:40:47;;;;;;;11.27;7.43;;;;;;;8.80;75.25;96106.13;6276099;22;20168;-89
2022/04/03 06:43:21;;;;;;;13.97;8.63;;;;;;;9.13;74.32;96143.03;6277293;22;20609;-92
2022/04/03 06:45:48;;;;;;;12.93;7.40;;;;;;;9.33;73.96;96131.63;6286585;22;20184;-90
2022/04/03 06:48:16;;;;;;;12.00;6.47;;;;;;;9.70;71.36;96146.75;6249991;22;20211;-91
2022/04/03 06:50:45;;;;;;;7.33;4.80;;;;;;;9.36;67.33;96062.53;6274619;22;20168;-92
2022/04/03 06:53:13;;;;;;;10.53;6.97;;;;;;;10.06;67.57;96161.91;6275270;22;20167;-87
2022/04/03 06:55:40;;;;;;;6.07;4.60;;;;;;;10.04;67.24;96155.97;6275652;22;20246;-92
2022/04/03 06:58:10;;;;;;;5.47;4.10;;;;;;;10.14;66.76;96144.25;6275252;22;20216;-87
2022/04/03 07:00:45;;;;;;;6.07;4.67;;;;;;;10.40;67.90;96161.66;6274724;22;20165;-95
2022/04/03 07:03:14;;;;;;;9.63;5.03;;;;;;;10.36;66.80;96170.53;6275737;22;20164;-92
2022/04/03 07:05:48;;;;;;;9.43;6.27;;;;;;;10.11;65.38;96119.38;6276953;22;20605;-87
2022/04/03 07:08:18;;;;;;;6.43;4.50;;;;;;;10.31;65.11;96173.38;6279920;22;20700;-90
2022/04/03 07:10:46;;;;;;;6.60;3.90;;;;;;;10.06;63.55;96146.38;6283228;22;20203;-89
2022/04/03 07:13:14;;;;;;;6.00;4.03;;;;;;;9.91;62.36;96103.31;6278782;22;20179;-92
2022/04/03 07:15:41;;;;;;;10.70;4.60;;;;;;;9.98;60.30;96095.09;6275684;22;20165;-92
2022/04/03 07:18:08;;;;;;;5.70;2.90;;;;;;;10.27;59.66;96150.34;6272951;22;20199;-87
2022/04/03 07:20:38;;;;;;;4.93;3.20;;;;;;;10.36;60.50;96173.94;6273889;22;20170;-87
2022/04/03 07:23:05;;;;;;;5.97;4.03;;;;;;;10.24;60.79;96155.72;6274257;22;20191;-87
2022/04/03 07:25:35;;;;;;;4.10;3.20;;;;;;;10.29;60.19;96184.72;6274140;22;20175;-90
2022/04/03 07:28:04;;;;;;;3.97;2.87;;;;;;;10.34;61.37;96185.31;6271443;22;20170;-88
2022/04/03 07:30:32;;;;;;;7.57;3.40;;;;;;;10.37;61.53;96156.63;6274565;22;20192;-88
2022/04/03 07:33:00;;;;;;;4.23;3.33;;;;;;;10.79;59.96;96169.63;6270678;22;20182;-86
2022/04/03 07:35:29;;;;;;;2.80;2.20;;;;;;;10.36;58.17;96098.06;6271532;22;20174;-89
2022/04/03 07:38:00;;;;;;;2.33;1.97;;;;;;;10.78;58.80;96157.59;6271714;22;20198;-87
2022/04/03 07:40:30;;;;;;;3.30;2.30;;;;;;;11.12;58.97;96190.06;6271264;22;20175;-92
2022/04/03 07:43:19;;;;;;;3.17;2.20;;;;;;;11.40;58.08;96190.84;6279416;22;20171;-88
2022/04/03 07:45:49;;;;;;;2.20;1.90;;;;;;;11.30;56.82;96148.28;6271934;22;20191;-86
2022/04/03 07:48:17;;;;;;;2.20;1.47;;;;;;;11.04;55.27;96198.31;6274767;22;20198;-89
2022/04/03 07:50:52;;;;;;;3.70;1.80;;;;;;;10.45;55.15;96146.66;6251420;22;20192;-92
2022/04/03 07:53:20;;;;;;;2.17;1.53;;;;;;;10.99;54.75;96184.78;6271519;22;20176;-91
2022/04/03 07:55:48;;;;;;;1.83;1.40;;;;;;;10.57;53.09;96070.88;6248977;22;20166;-87
2022/04/03 07:58:16;;;;;;;1.90;1.60;;;;;;;11.50;52.63;96203.25;6255918;22;20266;-86
2022/04/03 08:00:46;;;;;;;2.33;1.90;;;;;;;11.75;50.88;96200.78;6284028;22;20171;-88
2022/04/03 08:03:15;;;;;;;2.50;1.33;;;;;;;11.83;50.88;96201.16;6258914;22;20175;-86
2022/04/03 08:05:43;;;;;;;4.80;1.63;;;;;;;11.72;49.53;96138.72;6267852;22;20161;-82
2022/04/03 08:08:10;;;;;;;3.50;1.63;;;;;;;12.09;49.74;96193.34;6289459;22;20187;-86
2022/04/03 08:10:39;;;;;;;1.80;1.50;;;;;;;12.48;47.26;96200.25;6288714;22;20168;-89
2022/04/03 08:13:07;;;;;;;1.90;1.30;;;;;;;12.46;46.46;96178.75;6270676;22;20239;-83
2022/04/03 08:15:35;;;;;;;1.87;1.37;;;;;;;12.51;46.17;96163.69;6298290;22;20164;-87
2022/04/03 08:18:03;;;;;;;2.07;1.60;;;;;;;12.62;45.24;96181.13;6271201;22;20186;-84
2022/04/03 08:20:38;;;;;;;3.43;2.30;;;;;;;12.71;43.96;96191.75;6296350;22;20155;-89
2022/04/03 08:23:07;;;;;;;1.70;1.60;;;;;;;12.76;44.86;96196.63;6296354;22;20171;-89
2022/04/03 08:25:35;;;;;;;4.30;1.90;;;;;;;12.69;44.75;96136.47;6290042;22;20157;-89
2022/04/03 08:28:07;;;;;;;2.57;1.80;;;;;;;13.33;44.31;96158.88;6291675;22;20164;-89
2022/04/03 08:30:37;;;;;;;1.67;1.50;;;;;;;13.82;43.60;96195.22;6282796;22;20171;-89
2022/04/03 08:33:06;;;;;;;3.23;1.40;;;;;;;13.45;40.43;96103.38;6293846;22;20171;-86
2022/04/03 08:35:38;;;;;;;1.80;1.40;;;;;;;13.67;41.48;96146.88;6295795;22;20165;-86
2022/04/03 08:38:46;;;;;;;2.40;1.50;;;;;;;14.10;40.50;96155.81;6295836;22;20188;-88
2022/04/03 08:42:07;;;;;;;1.67;1.40;;;;;;;13.87;42.56;96177.47;6295228;22;20171;-85
2022/04/03 08:45:30;;;;;;;2.00;1.70;;;;;;;13.44;43.98;96217.91;6256613;22;20233;-86
2022/04/03 08:48:51;;;;;;;1.53;1.20;;;;;;;13.12;45.64;96203.72;6283404;22;20196;-86
2022/04/03 08:52:14;;;;;;;5.67;2.73;;;;;;;13.67;43.11;96189.34;6274824;22;20169;-84
2022/04/03 08:55:08;;;;;;;1.70;1.60;;;;;;;13.03;43.50;96156.59;6257770;22;20172;-89
2022/04/03 08:57:37;;;;;;;3.73;1.60;;;;;;;13.32;43.02;96195.34;6280923;22;20159;-84
2022/04/03 09:00:05;;;;;;;2.93;1.50;;;;;;;13.53;42.19;96186.03;6283113;22;20206;-88
2022/04/03 09:02:46;;;;;;;1.73;1.13;;;;;;;13.19;41.15;96200.56;6284159;22;20261;-86
2022/04/03 09:05:45;;;;;;;1.80;1.53;;;;;;;12.62;43.64;96178.53;6281975;22;20160;-85
2022/04/03 09:08:14;;;;;;;3.13;1.30;;;;;;;12.70;43.55;96169.31;6258815;22;20176;-86
2022/04/03 09:11:00;;;;;;;1.40;1.20;;;;;;;13.06;43.86;96177.19;6285436;22;20235;-88
2022/04/03 09:13:39;;;;;;;2.37;2.10;;;;;;;13.74;42.91;96203.56;6281662;22;20164;-84
2022/04/03 09:16:16;;;;;;;2.50;2.10;;;;;;;14.14;38.53;96196.28;6258278;22;20171;-86
2022/04/03 09:19:14;;;;;;;4.00;2.47;;;;;;;14.71;38.49;96209.44;6281145;22;20274;-86
2022/04/03 09:21:47;;;;;;;4.90;1.50;;;;;;;14.86;35.39;96203.03;6260068;22;20220;-81
2022/04/03 09:25:47;;;;;;;5.83;2.90;;;;;;;14.51;40.26;96190.06;6285386;22;20179;-83
2022/04/03 09:28:40;;;;;;;5.77;2.40;;;;;;;14.57;36.41;96188.75;6256050;22;20207;-84
2022/04/03 09:31:26;;;;;;;2.03;1.60;;;;;;;13.33;43.03;96236.03;6280510;22;20251;-85
2022/04/03 09:34:47;;;;;;;1.33;1.23;;;;;;;13.02;43.94;96239.88;6279063;22;20588;-83
2022/04/03 09:38:32;;;;;;;2.80;1.40;;;;;;;11.71;48.14;96267.56;6290448;22;20638;-83
2022/04/03 09:44:27;;;;;;;1.43;1.07;;;;;;;11.76;47.84;96267.28;6284383;22;20510;-85
2022/04/03 09:47:16;;;;;;;2.00;0.97;;;;;;;11.90;48.54;96264.66;6277613;22;20162;-83
2022/04/03 09:49:50;;;;;;;1.40;1.30;;;;;;;11.83;46.90;96232.28;6278377;22;20294;-84
2022/04/03 09:52:54;;;;;;;1.70;1.10;;;;;;;12.12;47.09;96245.03;6276880;22;20196;-81
2022/04/03 09:55:29;;;;;;;4.87;2.10;;;;;;;12.75;45.64;96255.56;6259568;22;20188;-84
2022/04/03 09:58:24;;;;;;;1.10;1.00;;;;;;;12.84;45.00;96259.28;6228646;22;20201;-85
2022/04/03 10:00:57;;;;;;;1.20;1.00;;;;;;;12.55;43.17;96248.25;6278507;22;20168;-84
2022/04/03 10:03:58;;;;;;;1.97;1.00;;;;;;;12.64;44.10;96252.84;6280187;22;20164;-82
2022/04/03 10:06:32;;;;;;;2.70;1.70;;;;;;;12.96;41.31;96228.13;6279530;22;20177;-85
2022/04/03 10:09:03;;;;;;;3.10;1.80;;;;;;;13.33;41.48;96220.44;6279900;22;20649;-84
2022/04/03 10:11:48;;;;;;;3.50;1.93;;;;;;;13.75;41.61;96259.03;6252345;22;20196;-85
2022/04/03 10:14:21;;;;;;;4.03;2.03;;;;;;;13.17;41.14;96232.84;6272848;22;20270;-85
2022/04/03 10:16:53;;;;;;;1.77;1.20;;;;;;;12.85;43.13;96245.38;6254728;22;20179;-86
2022/04/03 10:19:22;;;;;;;1.70;1.30;;;;;;;12.89;43.13;96258.06;6249857;22;20529;-85
2022/04/03 10:21:54;;;;;;;2.83;1.57;;;;;;;12.82;43.77;96229.97;6275335;22;20243;-85
2022/04/03 10:24:28;;;;;;;3.50;1.40;;;;;;;13.19;42.16;96275.97;6276270;22;20211;-86
2022/04/03 10:27:15;;;;;;;4.73;2.57;;;;;;;13.40;42.02;96263.25;6279172;22;20175;-89
2022/04/03 10:29:44;;;;;;;6.53;4.20;;;;;;;13.55;40.52;96257.00;6281873;22;20191;-84
2022/04/03 10:32:27;;;;;;;5.30;4.07;;;;;;;13.90;38.90;96263.16;6289080;22;20177;-95
2022/04/03 10:35:04;;;;;;;2.37;2.17;;;;;;;13.92;38.22;96222.22;6280203;22;20544;-87
2022/04/03 10:37:41;;;;;;;2.57;1.30;;;;;;;13.78;38.19;96269.25;6275525;22;20171;-84
2022/04/03 10:40:17;;;;;;;4.10;1.70;;;;;;;14.04;38.04;96247.38;6278909;22;20188;-84
2022/04/03 10:43:01;;;;;;;1.03;0.90;;;;;;;14.27;36.72;96256.13;6277279;22;20229;-85
2022/04/03 10:45:36;;;;;;;3.93;2.20;;;;;;;13.72;38.50;96221.03;6276724;22;20785;-88
2022/04/03 10:48:29;;;;;;;4.57;1.67;;;;;;;14.50;37.67;96258.75;6273513;22;20203;-88
2022/04/03 10:51:10;;;;;;;2.37;1.70;;;;;;;14.82;36.69;96260.75;6277079;22;20183;-91
2022/04/03 10:53:47;;;;;;;2.90;1.53;;;;;;;15.05;37.19;96265.06;6271588;22;20188;-83
2022/04/03 10:56:27;;;;;;;3.93;1.80;;;;;;;15.45;34.97;96264.56;6253943;22;20184;-86
2022/04/03 10:58:56;;;;;;;2.03;1.20;;;;;;;15.32;33.66;96242.91;6276572;22;20672;-85
2022/04/03 11:01:31;;;;;;;2.43;1.63;;;;;;;15.42;33.82;96261.28;6270815;22;20252;-85
2022/04/03 11:04:14;;;;;;;2.37;1.73;;;;;;;15.00;34.47;96267.19;6273847;22;20222;-89
2022/04/03 11:06:45;;;;;;;3.87;1.47;;;;;;;14.69;34.59;96261.66;6275193;22;20172;-86
2022/04/03 11:09:23;;;;;;;1.60;1.00;;;;;;;14.58;34.00;96260.78;6277808;22;20495;-92
2022/04/03 11:11:55;;;;;;;8.23;5.40;;;;;;;14.44;35.44;96264.44;6281409;22;20160;-90
2022/04/03 11:14:52;;;;;;;3.10;1.87;;;;;;;14.54;35.61;96269.78;6275648;22;20160;-92
2022/04/03 11:17:49;;;;;;;2.43;1.73;;;;;;;14.79;34.72;96263.59;6287451;22;20177;-90
2022/04/03 11:20:42;;;;;;;2.00;1.30;;;;;;;14.80;32.80;96250.41;6276054;22;20215;-94
2022/04/03 11:23:17;;;;;;;4.43;1.33;;;;;;;14.71;33.15;96240.72;6285640;22;20156;-87
2022/04/03 11:25:46;;;;;;;2.03;1.57;;;;;;;15.04;33.04;96260.78;6290076;22;20202;-85
2022/04/03 11:28:15;;;;;;;2.87;1.90;;;;;;;15.03;32.41;96223.44;6263039;22;20206;-85
2022/04/03 11:30:45;;;;;;;2.07;1.20;;;;;;;15.07;33.28;96248.34;6272639;22;20170;-93
2022/04/03 11:33:16;;;;;;;1.63;1.13;;;;;;;14.87;32.78;96240.38;6275406;22;20165;-89
2022/04/03 11:35:50;;;;;;;3.50;1.43;;;;;;;13.98;32.53;96109.84;6249042;22;20169;-85
2022/04/03 11:38:46;;;;;;;2.60;1.30;;;;;;;15.07;32.70;96257.94;6269494;22;20188;-92
2022/04/03 11:41:27;;;;;;;1.93;1.10;;;;;;;15.05;33.38;96258.06;6285503;22;20216;-86
2022/04/03 11:44:07;;;;;;;2.03;1.83;;;;;;;14.76;38.47;96242.94;6253759;22;20175;-95
2022/04/03 11:46:38;;;;;;;1.77;1.20;;;;;;;14.23;39.40;96271.16;6274772;22;20173;-90
2022/04/03 11:49:15;;;;;;;1.67;1.30;;;;;;;13.18;41.28;96164.28;6272516;22;20274;-90
2022/04/03 11:51:44;;;;;;;2.17;1.90;;;;;;;13.63;43.06;96270.31;6273783;22;20644;-88
2022/04/03 11:54:14;;;;;;;2.20;1.67;;;;;;;13.41;43.78;96270.16;6285735;22;20193;-86
2022/04/03 11:56:41;;;;;;;2.50;1.73;;;;;;;12.89;43.20;96263.25;6298821;22;20254;-88
2022/04/03 11:59:14;;;;;;;2.57;1.63;;;;;;;12.69;43.71;96287.16;6296287;22;20192;-85
2022/04/03 12:01:51;;;;;;;1.53;1.10;;;;;;;12.61;44.15;96288.59;6292813;22;20161;-84
2022/04/03 12:04:22;;;;;;;2.57;1.40;;;;;;;12.68;43.66;96301.06;6281607;22;20274;-94
2022/04/03 12:06:58;;;;;;;2.90;1.50;;;;;;;13.18;44.44;96322.88;6253753;22;20169;-91
2022/04/03 12:09:27;;;;;;;2.10;1.27;;;;;;;12.73;42.86;96249.66;6275189;22;20169;-88